sensor_id;sensor_type;location;lat;lon;timestamp;P1;durP1;ratioP1;P2;durP2;ratioP2
44078;SDS011;29744;49.078;12.878;2023-04-08T00:03:48;0.30;;;0.30;;
44078;SDS011;29744;49.078;12.878;2023-04-08T00:08:48;0.38;;;0.38;;
44078;SDS011;29744;49.078;12.878;2023-04-08T00:13:51;0.40;;;0.40;;
44078;SDS011;29744;49.078;12.878;2023-04-08T00:18:51;0.43;;;0.30;;
44078;SDS011;29744;49.078;12.878;2023-04-08T00:23:52;0.50;;;0.30;;
44078;SDS011;29744;49.078;12.878;2023-04-08T00:28:52;0.60;;;0.50;;
44078;SDS011;29744;49.078;12.878;2023-04-08T00:33:52;0.60;;;0.40;;
44078;SDS011;29744;49.078;12.878;2023-04-08T00:38:52;0.55;;;0.40;;
44078;SDS011;29744;49.078;12.878;2023-04-08T00:43:53;1.00;;;0.40;;
44078;SDS011;29744;49.078;12.878;2023-04-08T00:48:53;0.90;;;0.50;;
44078;SDS011;29744;49.078;12.878;2023-04-08T00:53:53;0.40;;;0.38;;
44078;SDS011;29744;49.078;12.878;2023-04-08T00:58:54;0.60;;;0.40;;
44078;SDS011;29744;49.078;12.878;2023-04-08T01:04:43;0.52;;;0.50;;
44078;SDS011;29744;49.078;12.878;2023-04-08T01:09:20;0.47;;;0.40;;
44078;SDS011;29744;49.078;12.878;2023-04-08T01:14:24;0.60;;;0.47;;
44078;SDS011;29744;49.078;12.878;2023-04-08T01:19:31;0.60;;;0.40;;
44078;SDS011;29744;49.078;12.878;2023-04-08T01:24:35;0.45;;;0.40;;
44078;SDS011;29744;49.078;12.878;2023-04-08T01:29:38;0.40;;;0.35;;
44078;SDS011;29744;49.078;12.878;2023-04-08T01:34:39;0.75;;;0.40;;
44078;SDS011;29744;49.078;12.878;2023-04-08T01:39:40;0.93;;;0.50;;
44078;SDS011;29744;49.078;12.878;2023-04-08T01:44:41;0.30;;;0.30;;
44078;SDS011;29744;49.078;12.878;2023-04-08T01:49:42;0.57;;;0.30;;
44078;SDS011;29744;49.078;12.878;2023-04-08T01:54:43;0.95;;;0.47;;
44078;SDS011;29744;49.078;12.878;2023-04-08T01:59:43;0.43;;;0.40;;
44078;SDS011;29744;49.078;12.878;2023-04-08T02:04:46;0.63;;;0.40;;
44078;SDS011;29744;49.078;12.878;2023-04-08T02:09:46;1.02;;;0.55;;
44078;SDS011;29744;49.078;12.878;2023-04-08T02:14:47;0.40;;;0.40;;
44078;SDS011;29744;49.078;12.878;2023-04-08T02:19:56;0.85;;;0.60;;
44078;SDS011;29744;49.078;12.878;2023-04-08T02:25:13;0.40;;;0.40;;
44078;SDS011;29744;49.078;12.878;2023-04-08T02:30:15;0.95;;;0.60;;
44078;SDS011;29744;49.078;12.878;2023-04-08T02:35:16;0.50;;;0.40;;
44078;SDS011;29744;49.078;12.878;2023-04-08T02:40:21;0.75;;;0.50;;
44078;SDS011;29744;49.078;12.878;2023-04-08T02:45:32;0.70;;;0.40;;
44078;SDS011;29744;49.078;12.878;2023-04-08T02:50:36;0.73;;;0.50;;
44078;SDS011;29744;49.078;12.878;2023-04-08T02:55:37;0.70;;;0.40;;
44078;SDS011;29744;49.078;12.878;2023-04-08T03:00:38;0.90;;;0.60;;
44078;SDS011;29744;49.078;12.878;2023-04-08T03:05:38;0.60;;;0.40;;
44078;SDS011;29744;49.078;12.878;2023-04-08T03:10:39;0.60;;;0.50;;
44078;SDS011;29744;49.078;12.878;2023-04-08T03:15:39;0.77;;;0.50;;
44078;SDS011;29744;49.078;12.878;2023-04-08T03:20:40;0.95;;;0.40;;
44078;SDS011;29744;49.078;12.878;2023-04-08T03:25:40;0.40;;;0.40;;
44078;SDS011;29744;49.078;12.878;2023-04-08T03:30:41;0.93;;;0.60;;
44078;SDS011;29744;49.078;12.878;2023-04-08T03:35:41;1.30;;;0.70;;
44078;SDS011;29744;49.078;12.878;2023-04-08T03:40:41;0.80;;;0.63;;
44078;SDS011;29744;49.078;12.878;2023-04-08T03:45:41;0.40;;;0.40;;
44078;SDS011;29744;49.078;12.878;2023-04-08T03:50:42;0.90;;;0.60;;
44078;SDS011;29744;49.078;12.878;2023-04-08T03:55:42;1.23;;;0.70;;
44078;SDS011;29744;49.078;12.878;2023-04-08T04:00:42;0.95;;;0.60;;
44078;SDS011;29744;49.078;12.878;2023-04-08T04:05:42;0.40;;;0.30;;
44078;SDS011;29744;49.078;12.878;2023-04-08T04:10:43;0.45;;;0.40;;
44078;SDS011;29744;49.078;12.878;2023-04-08T04:15:43;0.85;;;0.50;;
44078;SDS011;29744;49.078;12.878;2023-04-08T04:20:44;0.35;;;0.35;;
44078;SDS011;29744;49.078;12.878;2023-04-08T04:25:44;0.77;;;0.60;;
44078;SDS011;29744;49.078;12.878;2023-04-08T04:30:44;0.55;;;0.32;;
44078;SDS011;29744;49.078;12.878;2023-04-08T04:35:45;0.40;;;0.40;;
44078;SDS011;29744;49.078;12.878;2023-04-08T04:40:45;0.68;;;0.52;;
44078;SDS011;29744;49.078;12.878;2023-04-08T04:45:45;0.50;;;0.40;;
44078;SDS011;29744;49.078;12.878;2023-04-08T04:50:53;0.70;;;0.50;;
44078;SDS011;29744;49.078;12.878;2023-04-08T04:55:57;0.50;;;0.43;;
44078;SDS011;29744;49.078;12.878;2023-04-08T05:00:57;0.98;;;0.60;;
44078;SDS011;29744;49.078;12.878;2023-04-08T05:05:58;1.30;;;0.60;;
44078;SDS011;29744;49.078;12.878;2023-04-08T05:10:58;0.90;;;0.65;;
44078;SDS011;29744;49.078;12.878;2023-04-08T05:16:01;0.50;;;0.50;;
44078;SDS011;29744;49.078;12.878;2023-04-08T05:21:01;0.68;;;0.50;;
44078;SDS011;29744;49.078;12.878;2023-04-08T05:26:02;0.50;;;0.40;;
44078;SDS011;29744;49.078;12.878;2023-04-08T05:31:05;0.70;;;0.50;;
44078;SDS011;29744;49.078;12.878;2023-04-08T05:36:05;0.98;;;0.60;;
44078;SDS011;29744;49.078;12.878;2023-04-08T05:41:06;0.82;;;0.40;;
44078;SDS011;29744;49.078;12.878;2023-04-08T05:46:06;0.80;;;0.50;;
44078;SDS011;29744;49.078;12.878;2023-04-08T05:51:12;0.70;;;0.40;;
44078;SDS011;29744;49.078;12.878;2023-04-08T05:56:13;0.98;;;0.55;;
44078;SDS011;29744;49.078;12.878;2023-04-08T06:01:14;0.57;;;0.43;;
44078;SDS011;29744;49.078;12.878;2023-04-08T06:06:14;0.68;;;0.55;;
44078;SDS011;29744;49.078;12.878;2023-04-08T06:11:15;0.75;;;0.57;;
44078;SDS011;29744;49.078;12.878;2023-04-08T06:16:15;0.60;;;0.50;;
44078;SDS011;29744;49.078;12.878;2023-04-08T06:21:16;0.70;;;0.50;;
44078;SDS011;29744;49.078;12.878;2023-04-08T06:26:16;0.90;;;0.57;;
44078;SDS011;29744;49.078;12.878;2023-04-08T06:31:17;0.65;;;0.47;;
44078;SDS011;29744;49.078;12.878;2023-04-08T06:36:17;0.80;;;0.50;;
44078;SDS011;29744;49.078;12.878;2023-04-08T06:41:17;0.63;;;0.50;;
44078;SDS011;29744;49.078;12.878;2023-04-08T06:46:17;0.80;;;0.60;;
44078;SDS011;29744;49.078;12.878;2023-04-08T06:51:18;0.57;;;0.52;;
44078;SDS011;29744;49.078;12.878;2023-04-08T06:56:18;1.02;;;0.60;;
44078;SDS011;29744;49.078;12.878;2023-04-08T07:01:20;0.52;;;0.40;;
44078;SDS011;29744;49.078;12.878;2023-04-08T07:06:20;0.47;;;0.47;;
44078;SDS011;29744;49.078;12.878;2023-04-08T07:11:20;0.55;;;0.40;;
44078;SDS011;29744;49.078;12.878;2023-04-08T07:16:21;0.55;;;0.43;;
44078;SDS011;29744;49.078;12.878;2023-04-08T07:21:21;0.77;;;0.43;;
44078;SDS011;29744;49.078;12.878;2023-04-08T07:26:21;0.57;;;0.47;;
44078;SDS011;29744;49.078;12.878;2023-04-08T07:31:22;0.70;;;0.40;;
44078;SDS011;29744;49.078;12.878;2023-04-08T07:36:22;0.60;;;0.47;;
44078;SDS011;29744;49.078;12.878;2023-04-08T07:41:22;0.63;;;0.43;;
44078;SDS011;29744;49.078;12.878;2023-04-08T07:46:23;0.70;;;0.50;;
44078;SDS011;29744;49.078;12.878;2023-04-08T07:51:23;0.70;;;0.50;;
44078;SDS011;29744;49.078;12.878;2023-04-08T07:56:23;0.55;;;0.45;;
44078;SDS011;29744;49.078;12.878;2023-04-08T08:01:23;0.68;;;0.40;;
44078;SDS011;29744;49.078;12.878;2023-04-08T08:06:24;0.60;;;0.57;;
44078;SDS011;29744;49.078;12.878;2023-04-08T08:11:25;0.70;;;0.40;;
44078;SDS011;29744;49.078;12.878;2023-04-08T08:16:28;0.73;;;0.50;;
44078;SDS011;29744;49.078;12.878;2023-04-08T08:21:29;0.40;;;0.40;;
44078;SDS011;29744;49.078;12.878;2023-04-08T08:26:30;0.82;;;0.60;;
44078;SDS011;29744;49.078;12.878;2023-04-08T08:31:30;1.02;;;0.60;;
44078;SDS011;29744;49.078;12.878;2023-04-08T08:36:31;0.70;;;0.47;;
44078;SDS011;29744;49.078;12.878;2023-04-08T08:41:34;0.50;;;0.40;;
44078;SDS011;29744;49.078;12.878;2023-04-08T08:46:42;0.75;;;0.47;;
44078;SDS011;29744;49.078;12.878;2023-04-08T08:51:46;1.57;;;0.70;;
44078;SDS011;29744;49.078;12.878;2023-04-08T08:56:48;0.77;;;0.47;;
44078;SDS011;29744;49.078;12.878;2023-04-08T09:01:48;1.23;;;0.77;;
44078;SDS011;29744;49.078;12.878;2023-04-08T09:06:49;0.93;;;0.68;;
44078;SDS011;29744;49.078;12.878;2023-04-08T09:12:07;1.20;;;0.70;;
44078;SDS011;29744;49.078;12.878;2023-04-08T09:17:07;1.55;;;0.82;;
44078;SDS011;29744;49.078;12.878;2023-04-08T09:22:09;1.25;;;0.77;;
44078;SDS011;29744;49.078;12.878;2023-04-08T09:27:10;1.17;;;0.50;;
44078;SDS011;29744;49.078;12.878;2023-04-08T09:32:12;0.70;;;0.60;;
44078;SDS011;29744;49.078;12.878;2023-04-08T09:37:13;1.58;;;0.70;;
44078;SDS011;29744;49.078;12.878;2023-04-08T09:42:13;1.65;;;0.77;;
44078;SDS011;29744;49.078;12.878;2023-04-08T09:47:20;1.25;;;0.70;;
44078;SDS011;29744;49.078;12.878;2023-04-08T09:52:29;1.17;;;0.75;;
44078;SDS011;29744;49.078;12.878;2023-04-08T09:57:39;1.25;;;0.77;;
44078;SDS011;29744;49.078;12.878;2023-04-08T10:08:25;1.05;;;0.70;;
44078;SDS011;29744;49.078;12.878;2023-04-08T10:13:26;1.15;;;0.70;;
44078;SDS011;29744;49.078;12.878;2023-04-08T10:18:30;1.70;;;0.70;;
44078;SDS011;29744;49.078;12.878;2023-04-08T10:23:51;2.17;;;0.73;;
44078;SDS011;29744;49.078;12.878;2023-04-08T10:28:52;1.23;;;0.70;;
44078;SDS011;29744;49.078;12.878;2023-04-08T10:33:53;1.35;;;0.82;;
44078;SDS011;29744;49.078;12.878;2023-04-08T10:38:53;1.77;;;0.80;;
44078;SDS011;29744;49.078;12.878;2023-04-08T10:43:53;1.35;;;0.80;;
44078;SDS011;29744;49.078;12.878;2023-04-08T10:49:00;1.08;;;0.70;;
44078;SDS011;29744;49.078;12.878;2023-04-08T10:54:10;2.88;;;1.20;;
44078;SDS011;29744;49.078;12.878;2023-04-08T10:59:13;3.45;;;1.55;;
44078;SDS011;29744;49.078;12.878;2023-04-08T11:04:16;3.33;;;1.70;;
44078;SDS011;29744;49.078;12.878;2023-04-08T11:09:22;3.38;;;1.70;;
44078;SDS011;29744;49.078;12.878;2023-04-08T11:14:22;5.43;;;2.20;;
44078;SDS011;29744;49.078;12.878;2023-04-08T11:19:24;3.45;;;1.85;;
44078;SDS011;29744;49.078;12.878;2023-04-08T11:24:24;3.03;;;1.70;;
44078;SDS011;29744;49.078;12.878;2023-04-08T11:29:24;3.28;;;1.98;;
44078;SDS011;29744;49.078;12.878;2023-04-08T11:34:25;3.35;;;1.80;;
44078;SDS011;29744;49.078;12.878;2023-04-08T11:39:25;3.92;;;2.20;;
44078;SDS011;29744;49.078;12.878;2023-04-08T11:44:30;7.03;;;2.25;;
44078;SDS011;29744;49.078;12.878;2023-04-08T11:49:42;8.70;;;2.55;;
44078;SDS011;29744;49.078;12.878;2023-04-08T11:54:43;7.10;;;2.22;;
44078;SDS011;29744;49.078;12.878;2023-04-08T11:59:44;4.88;;;2.45;;
44078;SDS011;29744;49.078;12.878;2023-04-08T12:04:44;5.18;;;2.30;;
44078;SDS011;29744;49.078;12.878;2023-04-08T12:09:45;5.05;;;2.30;;
44078;SDS011;29744;49.078;12.878;2023-04-08T12:14:45;6.00;;;2.03;;
44078;SDS011;29744;49.078;12.878;2023-04-08T12:19:45;4.78;;;2.10;;
44078;SDS011;29744;49.078;12.878;2023-04-08T12:24:45;4.90;;;2.00;;
44078;SDS011;29744;49.078;12.878;2023-04-08T12:29:46;4.80;;;1.90;;
44078;SDS011;29744;49.078;12.878;2023-04-08T12:34:48;4.05;;;2.08;;
44078;SDS011;29744;49.078;12.878;2023-04-08T12:39:48;4.45;;;1.98;;
44078;SDS011;29744;49.078;12.878;2023-04-08T12:44:48;4.28;;;1.90;;
44078;SDS011;29744;49.078;12.878;2023-04-08T12:49:49;3.97;;;1.95;;
44078;SDS011;29744;49.078;12.878;2023-04-08T12:54:49;5.55;;;1.98;;
44078;SDS011;29744;49.078;12.878;2023-04-08T12:59:49;3.85;;;2.00;;
44078;SDS011;29744;49.078;12.878;2023-04-08T13:04:50;4.13;;;2.30;;
44078;SDS011;29744;49.078;12.878;2023-04-08T13:09:52;4.38;;;2.03;;
44078;SDS011;29744;49.078;12.878;2023-04-08T13:14:52;3.35;;;1.95;;
44078;SDS011;29744;49.078;12.878;2023-04-08T13:19:52;3.78;;;2.13;;
44078;SDS011;29744;49.078;12.878;2023-04-08T13:24:53;3.40;;;2.00;;
44078;SDS011;29744;49.078;12.878;2023-04-08T13:29:53;3.55;;;2.00;;
44078;SDS011;29744;49.078;12.878;2023-04-08T13:34:53;7.07;;;2.33;;
44078;SDS011;29744;49.078;12.878;2023-04-08T13:39:53;4.72;;;2.05;;
44078;SDS011;29744;49.078;12.878;2023-04-08T13:44:54;4.03;;;2.05;;
44078;SDS011;29744;49.078;12.878;2023-04-08T13:49:54;3.58;;;2.20;;
44078;SDS011;29744;49.078;12.878;2023-04-08T13:54:54;3.03;;;2.20;;
44078;SDS011;29744;49.078;12.878;2023-04-08T13:59:55;4.03;;;2.50;;
44078;SDS011;29744;49.078;12.878;2023-04-08T14:04:55;4.00;;;2.05;;
44078;SDS011;29744;49.078;12.878;2023-04-08T14:09:56;3.72;;;2.10;;
44078;SDS011;29744;49.078;12.878;2023-04-08T14:14:56;4.45;;;2.03;;
44078;SDS011;29744;49.078;12.878;2023-04-08T14:19:57;4.25;;;2.55;;
44078;SDS011;29744;49.078;12.878;2023-04-08T14:24:58;4.80;;;2.42;;
44078;SDS011;29744;49.078;12.878;2023-04-08T14:29:58;5.00;;;2.40;;
44078;SDS011;29744;49.078;12.878;2023-04-08T14:34:59;6.25;;;2.75;;
44078;SDS011;29744;49.078;12.878;2023-04-08T14:39:59;3.63;;;2.30;;
44078;SDS011;29744;49.078;12.878;2023-04-08T14:45:00;5.18;;;2.28;;
44078;SDS011;29744;49.078;12.878;2023-04-08T14:50:00;3.97;;;2.58;;
44078;SDS011;29744;49.078;12.878;2023-04-08T14:55:00;4.93;;;2.30;;
44078;SDS011;29744;49.078;12.878;2023-04-08T15:00:01;4.10;;;2.38;;
44078;SDS011;29744;49.078;12.878;2023-04-08T15:05:02;4.30;;;2.28;;
44078;SDS011;29744;49.078;12.878;2023-04-08T15:10:02;4.63;;;2.30;;
44078;SDS011;29744;49.078;12.878;2023-04-08T15:15:03;3.55;;;2.17;;
44078;SDS011;29744;49.078;12.878;2023-04-08T15:20:04;4.00;;;2.42;;
44078;SDS011;29744;49.078;12.878;2023-04-08T15:25:05;3.45;;;2.00;;
44078;SDS011;29744;49.078;12.878;2023-04-08T15:30:06;3.55;;;2.10;;
44078;SDS011;29744;49.078;12.878;2023-04-08T15:35:07;3.72;;;2.33;;
44078;SDS011;29744;49.078;12.878;2023-04-08T15:40:07;4.38;;;2.17;;
44078;SDS011;29744;49.078;12.878;2023-04-08T15:45:08;4.55;;;2.55;;
44078;SDS011;29744;49.078;12.878;2023-04-08T15:50:09;4.32;;;2.30;;
44078;SDS011;29744;49.078;12.878;2023-04-08T15:55:10;3.97;;;2.40;;
44078;SDS011;29744;49.078;12.878;2023-04-08T16:00:10;4.00;;;2.15;;
44078;SDS011;29744;49.078;12.878;2023-04-08T16:05:11;4.60;;;2.42;;
44078;SDS011;29744;49.078;12.878;2023-04-08T16:10:12;4.38;;;2.45;;
44078;SDS011;29744;49.078;12.878;2023-04-08T16:15:12;4.82;;;2.50;;
44078;SDS011;29744;49.078;12.878;2023-04-08T16:20:12;4.57;;;2.67;;
44078;SDS011;29744;49.078;12.878;2023-04-08T16:25:13;3.45;;;2.13;;
44078;SDS011;29744;49.078;12.878;2023-04-08T16:30:13;4.18;;;2.33;;
44078;SDS011;29744;49.078;12.878;2023-04-08T16:35:14;3.85;;;2.22;;
44078;SDS011;29744;49.078;12.878;2023-04-08T16:40:15;3.17;;;2.08;;
44078;SDS011;29744;49.078;12.878;2023-04-08T16:45:16;3.35;;;2.15;;
44078;SDS011;29744;49.078;12.878;2023-04-08T16:50:16;4.15;;;2.33;;
44078;SDS011;29744;49.078;12.878;2023-04-08T16:55:17;3.95;;;2.10;;
44078;SDS011;29744;49.078;12.878;2023-04-08T17:00:18;5.20;;;2.25;;
44078;SDS011;29744;49.078;12.878;2023-04-08T17:05:18;3.60;;;2.17;;
44078;SDS011;29744;49.078;12.878;2023-04-08T17:10:23;5.35;;;2.50;;
44078;SDS011;29744;49.078;12.878;2023-04-08T17:15:24;2.90;;;1.85;;
44078;SDS011;29744;49.078;12.878;2023-04-08T17:20:24;3.50;;;2.20;;
44078;SDS011;29744;49.078;12.878;2023-04-08T17:25:25;4.45;;;2.28;;
44078;SDS011;29744;49.078;12.878;2023-04-08T17:30:25;3.90;;;2.08;;
44078;SDS011;29744;49.078;12.878;2023-04-08T17:35:26;4.22;;;2.15;;
44078;SDS011;29744;49.078;12.878;2023-04-08T17:40:26;3.83;;;2.28;;
44078;SDS011;29744;49.078;12.878;2023-04-08T17:45:26;3.30;;;1.80;;
44078;SDS011;29744;49.078;12.878;2023-04-08T17:50:26;4.65;;;2.10;;
44078;SDS011;29744;49.078;12.878;2023-04-08T17:55:27;4.50;;;2.08;;
44078;SDS011;29744;49.078;12.878;2023-04-08T18:00:27;2.78;;;1.88;;
44078;SDS011;29744;49.078;12.878;2023-04-08T18:05:28;4.18;;;1.88;;
44078;SDS011;29744;49.078;12.878;2023-04-08T18:10:29;3.50;;;2.10;;
44078;SDS011;29744;49.078;12.878;2023-04-08T18:15:29;3.10;;;1.95;;
44078;SDS011;29744;49.078;12.878;2023-04-08T18:20:29;4.50;;;2.53;;
44078;SDS011;29744;49.078;12.878;2023-04-08T18:25:33;3.22;;;1.75;;
44078;SDS011;29744;49.078;12.878;2023-04-08T18:30:33;5.53;;;2.20;;
44078;SDS011;29744;49.078;12.878;2023-04-08T18:35:33;5.00;;;2.20;;
44078;SDS011;29744;49.078;12.878;2023-04-08T18:40:34;6.10;;;2.35;;
44078;SDS011;29744;49.078;12.878;2023-04-08T18:45:34;4.55;;;2.00;;
44078;SDS011;29744;49.078;12.878;2023-04-08T18:50:35;4.18;;;1.98;;
44078;SDS011;29744;49.078;12.878;2023-04-08T18:55:35;4.50;;;1.83;;
44078;SDS011;29744;49.078;12.878;2023-04-08T19:00:37;3.40;;;1.90;;
44078;SDS011;29744;49.078;12.878;2023-04-08T19:05:40;3.47;;;2.03;;
44078;SDS011;29744;49.078;12.878;2023-04-08T19:10:41;3.38;;;1.75;;
44078;SDS011;29744;49.078;12.878;2023-04-08T19:15:41;4.78;;;1.90;;
44078;SDS011;29744;49.078;12.878;2023-04-08T19:20:42;3.13;;;1.90;;
44078;SDS011;29744;49.078;12.878;2023-04-08T19:25:42;3.50;;;1.92;;
44078;SDS011;29744;49.078;12.878;2023-04-08T19:30:43;3.60;;;2.08;;
44078;SDS011;29744;49.078;12.878;2023-04-08T19:35:43;2.85;;;1.70;;
44078;SDS011;29744;49.078;12.878;2023-04-08T19:40:43;3.70;;;2.08;;
44078;SDS011;29744;49.078;12.878;2023-04-08T19:45:43;3.65;;;1.90;;
44078;SDS011;29744;49.078;12.878;2023-04-08T19:50:44;2.97;;;1.77;;
44078;SDS011;29744;49.078;12.878;2023-04-08T19:55:45;2.88;;;1.70;;
44078;SDS011;29744;49.078;12.878;2023-04-08T20:00:45;3.45;;;1.80;;
44078;SDS011;29744;49.078;12.878;2023-04-08T20:05:45;3.28;;;1.70;;
44078;SDS011;29744;49.078;12.878;2023-04-08T20:10:46;2.47;;;1.50;;
44078;SDS011;29744;49.078;12.878;2023-04-08T20:15:48;2.97;;;1.80;;
44078;SDS011;29744;49.078;12.878;2023-04-08T20:20:48;4.65;;;1.80;;
44078;SDS011;29744;49.078;12.878;2023-04-08T20:25:48;2.50;;;1.55;;
44078;SDS011;29744;49.078;12.878;2023-04-08T20:30:50;2.88;;;1.67;;
44078;SDS011;29744;49.078;12.878;2023-04-08T20:35:51;3.10;;;1.80;;
44078;SDS011;29744;49.078;12.878;2023-04-08T20:40:52;2.55;;;1.67;;
44078;SDS011;29744;49.078;12.878;2023-04-08T20:45:52;2.90;;;1.45;;
44078;SDS011;29744;49.078;12.878;2023-04-08T20:50:53;2.75;;;1.60;;
44078;SDS011;29744;49.078;12.878;2023-04-08T20:55:53;2.40;;;1.45;;
44078;SDS011;29744;49.078;12.878;2023-04-08T21:00:55;2.83;;;1.65;;
44078;SDS011;29744;49.078;12.878;2023-04-08T21:05:56;2.70;;;1.70;;
44078;SDS011;29744;49.078;12.878;2023-04-08T21:10:57;2.70;;;1.55;;
44078;SDS011;29744;49.078;12.878;2023-04-08T21:15:57;2.47;;;1.40;;
44078;SDS011;29744;49.078;12.878;2023-04-08T21:20:58;2.75;;;1.35;;
44078;SDS011;29744;49.078;12.878;2023-04-08T21:25:58;2.92;;;1.48;;
44078;SDS011;29744;49.078;12.878;2023-04-08T21:31:11;2.28;;;1.55;;
44078;SDS011;29744;49.078;12.878;2023-04-08T21:36:12;3.15;;;1.40;;
44078;SDS011;29744;49.078;12.878;2023-04-08T21:41:12;2.63;;;1.35;;
44078;SDS011;29744;49.078;12.878;2023-04-08T21:46:13;3.97;;;1.35;;
44078;SDS011;29744;49.078;12.878;2023-04-08T21:51:13;2.13;;;1.30;;
44078;SDS011;29744;49.078;12.878;2023-04-08T21:56:15;2.40;;;1.35;;
44078;SDS011;29744;49.078;12.878;2023-04-08T22:01:16;2.35;;;1.23;;
44078;SDS011;29744;49.078;12.878;2023-04-08T22:06:16;2.22;;;1.33;;
44078;SDS011;29744;49.078;12.878;2023-04-08T22:11:16;2.28;;;1.25;;
44078;SDS011;29744;49.078;12.878;2023-04-08T22:16:17;2.28;;;1.30;;
44078;SDS011;29744;49.078;12.878;2023-04-08T22:21:17;2.42;;;1.40;;
44078;SDS011;29744;49.078;12.878;2023-04-08T22:26:17;2.25;;;1.48;;
44078;SDS011;29744;49.078;12.878;2023-04-08T22:31:18;2.38;;;1.50;;
44078;SDS011;29744;49.078;12.878;2023-04-08T22:36:18;2.80;;;1.63;;
44078;SDS011;29744;49.078;12.878;2023-04-08T22:41:19;2.90;;;1.30;;
44078;SDS011;29744;49.078;12.878;2023-04-08T22:46:20;2.33;;;1.50;;
44078;SDS011;29744;49.078;12.878;2023-04-08T22:51:20;1.80;;;1.10;;
44078;SDS011;29744;49.078;12.878;2023-04-08T22:56:21;2.03;;;1.10;;
44078;SDS011;29744;49.078;12.878;2023-04-08T23:01:22;2.30;;;1.40;;
44078;SDS011;29744;49.078;12.878;2023-04-08T23:06:22;1.75;;;1.20;;
44078;SDS011;29744;49.078;12.878;2023-04-08T23:11:23;1.98;;;1.33;;
44078;SDS011;29744;49.078;12.878;2023-04-08T23:16:23;2.70;;;1.40;;
44078;SDS011;29744;49.078;12.878;2023-04-08T23:21:23;1.70;;;1.10;;
44078;SDS011;29744;49.078;12.878;2023-04-08T23:26:25;1.58;;;1.05;;
44078;SDS011;29744;49.078;12.878;2023-04-08T23:31:25;1.85;;;1.10;;
44078;SDS011;29744;49.078;12.878;2023-04-08T23:36:25;2.17;;;1.30;;
44078;SDS011;29744;49.078;12.878;2023-04-08T23:41:26;1.65;;;1.10;;
44078;SDS011;29744;49.078;12.878;2023-04-08T23:46:26;1.15;;;0.95;;
44078;SDS011;29744;49.078;12.878;2023-04-08T23:51:27;1.95;;;1.17;;
44078;SDS011;29744;49.078;12.878;2023-04-08T23:56:27;1.58;;;1.10;;
